createdAt,value
2017-06-01T00:01:14.356Z,9.08
2017-06-01T00:03:43.618Z,8.36
2017-06-01T00:06:12.768Z,8.50
2017-06-01T00:08:41.961Z,8.56
2017-06-01T00:11:11.295Z,8.48
2017-06-01T00:13:40.495Z,9.32
2017-06-01T00:16:09.723Z,9.56
2017-06-01T00:18:38.932Z,9.80
2017-06-01T00:21:08.175Z,9.18
2017-06-01T00:23:37.395Z,9.52
2017-06-01T00:26:06.692Z,9.74
2017-06-01T00:28:35.902Z,10.38
2017-06-01T00:31:05.097Z,8.88
2017-06-01T00:33:34.995Z,7.82
2017-06-01T00:36:04.261Z,9.16
2017-06-01T00:38:33.547Z,9.24
2017-06-01T00:41:02.859Z,9.12
2017-06-01T00:43:32.087Z,9.20
2017-06-01T00:46:01.295Z,8.68
2017-06-01T00:48:30.519Z,9.48
2017-06-01T00:50:59.732Z,9.94
2017-06-01T00:53:28.956Z,9.80
2017-06-01T00:55:58.158Z,10.20
2017-06-01T00:58:27.391Z,9.82
2017-06-01T01:00:56.584Z,9.58
2017-06-01T01:03:25.840Z,9.62
2017-06-01T01:05:55.051Z,8.92
2017-06-01T01:08:24.259Z,10.68
2017-06-01T01:10:53.515Z,9.54
2017-06-01T01:13:22.792Z,9.48
2017-06-01T01:15:51.988Z,9.46
2017-06-01T01:18:21.212Z,9.36
2017-06-01T01:20:50.451Z,9.50
2017-06-01T01:23:19.788Z,9.36
2017-06-01T01:25:49.000Z,8.82
2017-06-01T01:28:18.203Z,10.34
2017-06-01T01:30:47.087Z,9.94
2017-06-01T01:33:16.279Z,11.16
2017-06-01T01:35:44.798Z,9.98
2017-06-01T01:38:13.419Z,10.58
2017-06-01T01:40:41.941Z,10.80
2017-06-01T01:43:11.216Z,10.42
2017-06-01T01:45:40.091Z,10.48
2017-06-01T01:48:08.604Z,9.46
2017-06-01T01:50:37.139Z,8.74
2017-06-01T01:53:05.639Z,9.78
2017-06-01T01:55:34.172Z,10.24
2017-06-01T01:58:02.770Z,10.32
2017-06-01T02:00:32.331Z,11.46
2017-06-01T02:03:01.190Z,11.30
2017-06-01T02:05:30.051Z,10.14
2017-06-01T02:07:58.927Z,10.22
2017-06-01T02:10:27.446Z,10.22
2017-06-01T02:12:56.323Z,10.94
2017-06-01T02:15:25.544Z,10.84
2017-06-01T02:17:54.051Z,11.20
2017-06-01T02:20:22.931Z,11.48
2017-06-01T02:22:51.784Z,11.04
2017-06-01T02:25:21.008Z,10.40
2017-06-01T02:27:50.206Z,11.76
2017-06-01T02:30:19.052Z,11.06
2017-06-01T02:32:47.595Z,10.78
2017-06-01T02:35:16.840Z,11.52
2017-06-01T02:37:45.353Z,11.42
2017-06-01T02:40:14.562Z,11.00
2017-06-01T02:42:43.317Z,10.90
2017-06-01T02:45:12.519Z,10.56
2017-06-01T02:47:41.064Z,10.32
2017-06-01T02:50:10.298Z,11.68
2017-06-01T02:52:39.510Z,11.54
2017-06-01T02:55:08.804Z,12.26
2017-06-01T02:57:37.638Z,12.36
2017-06-01T03:00:06.526Z,12.34
2017-06-01T03:02:35.395Z,12.04
2017-06-01T03:05:04.251Z,11.16
2017-06-01T03:07:33.131Z,10.54
2017-06-01T03:10:01.764Z,11.82
2017-06-01T03:12:30.623Z,10.50
2017-06-01T03:14:59.842Z,12.42
2017-06-01T03:17:28.365Z,12.04
2017-06-01T03:19:57.251Z,10.94
2017-06-01T03:22:27.088Z,11.00
2017-06-01T03:24:55.958Z,10.82
2017-06-01T03:27:24.804Z,10.82
2017-06-01T03:29:53.403Z,11.20
2017-06-01T03:32:22.607Z,11.20
2017-06-01T03:34:51.482Z,11.44
2017-06-01T03:37:20.000Z,10.20
2017-06-01T03:39:48.871Z,10.68
2017-06-01T03:42:18.071Z,10.84
2017-06-01T03:44:47.277Z,9.24
2017-06-01T03:47:16.496Z,10.94
2017-06-01T03:49:45.699Z,11.28
2017-06-01T03:52:14.916Z,10.02
2017-06-01T03:54:44.124Z,9.86
2017-06-01T03:57:13.003Z,9.98
2017-06-01T03:59:42.208Z,11.14
2017-06-01T04:02:11.415Z,10.94
2017-06-01T04:04:40.290Z,9.88
2017-06-01T04:07:09.149Z,10.04
2017-06-01T04:09:38.131Z,9.46
2017-06-01T04:12:07.011Z,10.20
2017-06-01T04:14:35.856Z,9.72
2017-06-01T04:17:04.363Z,9.16
2017-06-01T04:19:33.343Z,9.80
2017-06-01T04:22:02.233Z,9.48
2017-06-01T04:24:31.069Z,9.04
2017-06-01T04:27:00.269Z,8.30
2017-06-01T04:29:29.711Z,10.44
2017-06-01T04:31:59.011Z,9.88
2017-06-01T04:34:28.225Z,10.10
2017-06-01T04:36:57.443Z,8.26
2017-06-01T04:39:26.663Z,9.38
2017-06-01T04:41:55.858Z,9.02
2017-06-01T04:44:25.078Z,10.08
2017-06-01T04:46:54.297Z,9.86
2017-06-01T04:49:23.166Z,10.32
2017-06-01T04:51:52.031Z,11.02
2017-06-01T04:54:21.240Z,10.36
2017-06-01T04:56:50.095Z,10.78
2017-06-01T04:59:19.304Z,11.00
2017-06-01T05:01:48.539Z,10.78
2017-06-01T05:04:17.859Z,10.98
2017-06-01T05:06:47.139Z,11.84
2017-06-01T05:09:16.373Z,11.98
2017-06-01T05:11:45.739Z,11.08
2017-06-01T05:14:14.948Z,11.60
2017-06-01T05:16:44.151Z,11.66
2017-06-01T05:19:13.375Z,11.60
2017-06-01T05:21:42.574Z,11.58
2017-06-01T05:24:11.787Z,11.22
2017-06-01T05:26:41.011Z,11.22
2017-06-01T05:29:10.243Z,11.28
2017-06-01T05:31:39.511Z,12.20
2017-06-01T05:34:08.706Z,11.98
2017-06-01T05:36:37.920Z,10.92
2017-06-01T05:39:07.165Z,11.00
2017-06-01T05:41:36.380Z,11.08
2017-06-01T05:44:06.291Z,10.80
2017-06-01T05:46:35.513Z,10.36
2017-06-01T05:49:04.769Z,10.40
2017-06-01T05:51:33.994Z,11.00
2017-06-01T05:54:03.211Z,11.44
2017-06-01T05:56:32.419Z,10.20
2017-06-01T05:59:01.632Z,10.48
2017-06-01T06:01:30.852Z,10.62
2017-06-01T06:04:00.061Z,9.12
2017-06-01T06:06:29.276Z,9.90
2017-06-01T06:08:58.493Z,9.96
2017-06-01T06:11:27.692Z,10.12
2017-06-01T06:13:56.982Z,9.26
2017-06-01T06:16:26.163Z,8.54
2017-06-01T06:18:55.359Z,8.84
2017-06-01T06:21:24.578Z,8.78
2017-06-01T06:23:53.823Z,9.50
2017-06-01T06:26:23.008Z,8.82
2017-06-01T06:28:52.235Z,8.90
2017-06-01T06:31:21.443Z,9.44
2017-06-01T06:33:51.459Z,9.72
2017-06-01T06:36:20.371Z,9.24
2017-06-01T06:38:49.567Z,7.78
2017-06-01T06:41:18.776Z,8.86
2017-06-01T06:43:47.997Z,8.36
2017-06-01T06:46:16.439Z,9.46
2017-06-01T06:48:44.891Z,10.74
2017-06-01T06:51:14.155Z,8.50
2017-06-01T06:53:43.466Z,8.32
2017-06-01T06:56:12.677Z,9.06
2017-06-01T06:58:42.073Z,9.60
2017-06-01T07:01:11.280Z,9.20
2017-06-01T07:03:41.209Z,7.94
2017-06-01T07:06:10.404Z,8.26
2017-06-01T07:08:39.625Z,6.40
2017-06-01T07:11:08.846Z,7.78
2017-06-01T07:13:38.071Z,6.16
2017-06-01T07:16:07.317Z,8.90
2017-06-01T07:18:36.515Z,8.68
2017-06-01T07:21:05.781Z,8.10
2017-06-01T07:23:34.975Z,7.68
2017-06-01T07:26:04.191Z,6.62
2017-06-01T07:28:33.451Z,6.84
2017-06-01T07:31:02.676Z,6.24
2017-06-01T07:33:32.052Z,5.78
2017-06-01T07:36:01.264Z,6.58
2017-06-01T07:38:31.164Z,7.14
2017-06-01T07:41:00.362Z,5.66
2017-06-01T07:43:29.586Z,6.80
2017-06-01T07:45:58.782Z,6.70
2017-06-01T07:48:27.970Z,6.68
2017-06-01T07:50:57.196Z,6.20
2017-06-01T07:53:26.400Z,6.40
2017-06-01T07:55:55.619Z,5.92
2017-06-01T07:58:24.819Z,5.80
2017-06-01T08:00:54.041Z,6.00
2017-06-01T08:03:23.260Z,7.26
2017-06-01T08:05:52.452Z,6.10
2017-06-01T08:08:21.680Z,5.90
2017-06-01T08:10:50.901Z,5.30
2017-06-01T08:13:20.111Z,6.32
2017-06-01T08:15:48.553Z,5.60
2017-06-01T08:18:16.993Z,6.22
2017-06-01T08:20:46.273Z,6.46
2017-06-01T08:23:15.483Z,6.12
2017-06-01T08:25:44.701Z,6.32
2017-06-01T08:28:13.900Z,7.46
2017-06-01T08:30:43.112Z,7.58
2017-06-01T08:33:12.327Z,6.84
2017-06-01T08:35:41.603Z,7.86
2017-06-01T08:38:10.832Z,7.28
2017-06-01T08:40:40.004Z,8.32
2017-06-01T08:43:09.213Z,7.40
2017-06-01T08:45:37.655Z,6.42
2017-06-01T08:48:06.106Z,6.96
2017-06-01T08:50:35.302Z,6.38
2017-06-01T08:53:04.520Z,6.88
2017-06-01T08:55:33.732Z,7.54
2017-06-01T08:58:02.175Z,7.10
2017-06-01T09:00:31.390Z,7.58
2017-06-01T09:03:00.599Z,6.90
2017-06-01T09:05:29.023Z,8.08
2017-06-01T09:07:58.239Z,7.38
2017-06-01T09:10:26.688Z,7.28
2017-06-01T09:12:55.952Z,6.88
2017-06-01T09:15:25.164Z,7.20
2017-06-01T09:17:53.635Z,6.86
2017-06-01T09:20:22.848Z,6.58
2017-06-01T09:22:52.068Z,6.52
2017-06-01T09:25:21.279Z,6.70
2017-06-01T09:27:49.763Z,6.98
2017-06-01T09:30:18.221Z,7.12
2017-06-01T09:32:47.452Z,7.54
2017-06-01T09:35:15.920Z,6.26
2017-06-01T09:37:45.142Z,7.26
2017-06-01T09:40:13.591Z,7.36
2017-06-01T09:42:42.772Z,6.60
2017-06-01T09:45:11.248Z,6.06
2017-06-01T09:47:40.553Z,7.68
2017-06-01T09:50:09.765Z,7.00
2017-06-01T09:52:38.983Z,6.26
2017-06-01T09:55:08.203Z,5.52
2017-06-01T09:57:37.411Z,5.40
2017-06-01T10:00:06.608Z,5.52
2017-06-01T10:02:35.823Z,6.56
2017-06-01T10:05:05.061Z,6.02
2017-06-01T10:07:34.272Z,5.20
2017-06-01T10:10:02.724Z,5.10
2017-06-01T10:12:31.919Z,5.82
2017-06-01T10:15:01.156Z,5.80
2017-06-01T10:17:30.354Z,5.70
2017-06-01T10:19:59.552Z,5.08
2017-06-01T10:22:28.773Z,5.14
2017-06-01T10:24:57.969Z,6.00
2017-06-01T10:27:27.180Z,5.92
2017-06-01T10:29:55.641Z,5.46
2017-06-01T10:32:24.864Z,5.30
2017-06-01T10:34:54.064Z,5.12
2017-06-01T10:37:23.285Z,4.92
2017-06-01T10:39:52.497Z,4.42
2017-06-01T10:42:21.791Z,4.88
2017-06-01T10:44:51.033Z,4.20
2017-06-01T10:47:20.239Z,4.84
2017-06-01T10:49:49.460Z,5.12
2017-06-01T10:52:18.676Z,5.14
2017-06-01T10:54:47.123Z,4.90
2017-06-01T10:57:16.330Z,4.48
2017-06-01T10:59:45.549Z,5.86
2017-06-01T11:02:14.748Z,4.92
2017-06-01T11:04:43.964Z,4.16
2017-06-01T11:07:13.195Z,4.66
2017-06-01T11:09:42.416Z,5.02
2017-06-01T11:12:11.619Z,4.00
2017-06-01T11:14:40.832Z,4.54
2017-06-01T11:17:10.028Z,4.90
2017-06-01T11:19:39.263Z,4.48
2017-06-01T11:22:08.468Z,4.36
2017-06-01T11:24:38.387Z,4.38
2017-06-01T11:27:06.847Z,4.66
2017-06-01T11:29:35.277Z,4.54
2017-06-01T11:32:04.499Z,4.62
2017-06-01T11:34:33.880Z,4.76
2017-06-01T11:37:03.787Z,5.02
2017-06-01T11:39:32.349Z,5.18
2017-06-01T11:42:00.795Z,5.26
2017-06-01T11:44:30.704Z,4.60
2017-06-01T11:47:00.007Z,5.38
2017-06-01T11:49:29.243Z,5.52
2017-06-01T11:51:58.448Z,5.90
2017-06-01T11:54:27.671Z,5.32
2017-06-01T11:56:56.872Z,5.46
2017-06-01T11:59:26.119Z,5.62
2017-06-01T12:01:55.315Z,4.52
2017-06-01T12:04:24.537Z,4.52
2017-06-01T12:06:53.755Z,4.82
2017-06-01T12:09:22.948Z,4.70
2017-06-01T12:11:52.180Z,5.26
2017-06-01T12:14:21.412Z,5.04
2017-06-01T12:16:50.663Z,4.92
2017-06-01T12:19:19.902Z,4.12
2017-06-01T12:21:49.107Z,4.06
2017-06-01T12:24:18.327Z,4.88
2017-06-01T12:26:47.631Z,4.14
2017-06-01T12:29:17.652Z,4.72
2017-06-01T12:31:46.848Z,4.44
2017-06-01T12:34:16.252Z,4.92
2017-06-01T12:36:45.524Z,4.06
2017-06-01T12:39:14.739Z,4.50
2017-06-01T12:41:43.944Z,4.60
2017-06-01T12:44:13.171Z,4.70
2017-06-01T12:46:42.383Z,4.26
2017-06-01T12:49:11.623Z,4.78
2017-06-01T12:51:40.917Z,4.36
2017-06-01T12:54:10.239Z,4.52
2017-06-01T12:56:39.436Z,4.82
2017-06-01T12:59:08.667Z,4.46
2017-06-01T13:01:37.879Z,3.94
2017-06-01T13:04:07.196Z,4.20
2017-06-01T13:06:36.402Z,4.48
2017-06-01T13:09:06.290Z,5.00
2017-06-01T13:11:35.728Z,4.40
2017-06-01T13:14:04.932Z,4.40
2017-06-01T13:16:34.147Z,3.80
2017-06-01T13:19:02.591Z,4.70
2017-06-01T13:21:31.823Z,4.22
2017-06-01T13:24:01.042Z,4.12
2017-06-01T13:26:30.341Z,3.76
2017-06-01T13:28:59.549Z,3.54
2017-06-01T13:31:28.807Z,4.08
2017-06-01T13:33:58.000Z,4.10
2017-06-01T13:36:27.204Z,4.08
2017-06-01T13:38:56.415Z,4.24
2017-06-01T13:41:25.616Z,3.72
2017-06-01T13:43:54.819Z,4.08
2017-06-01T13:46:24.049Z,4.30
2017-06-01T13:48:53.243Z,4.34
2017-06-01T13:51:22.439Z,4.26
2017-06-01T13:53:51.658Z,4.30
2017-06-01T13:56:20.885Z,4.06
2017-06-01T13:58:50.106Z,4.26
2017-06-01T14:01:19.296Z,3.54
2017-06-01T14:03:48.495Z,4.32
2017-06-01T14:06:17.711Z,3.64
2017-06-01T14:08:46.926Z,4.14
2017-06-01T14:11:16.242Z,3.70
2017-06-01T14:13:45.458Z,2.96
2017-06-01T14:16:14.676Z,3.46
2017-06-01T14:18:43.870Z,3.72
2017-06-01T14:21:13.075Z,2.96
2017-06-01T14:23:42.297Z,3.48
2017-06-01T14:26:12.199Z,3.64
2017-06-01T14:28:41.412Z,3.70
2017-06-01T14:31:09.844Z,3.72
2017-06-01T14:33:39.032Z,4.06
2017-06-01T14:36:07.487Z,4.04
2017-06-01T14:38:36.707Z,2.86
2017-06-01T14:41:05.156Z,3.18
2017-06-01T14:43:34.355Z,3.88
2017-06-01T14:46:03.571Z,3.10
2017-06-01T14:48:32.799Z,3.00
2017-06-01T14:51:02.024Z,3.16
2017-06-01T14:53:31.243Z,3.30
2017-06-01T14:55:59.675Z,3.38
2017-06-01T14:58:28.896Z,3.22
2017-06-01T15:00:58.131Z,3.60
2017-06-01T15:03:27.335Z,3.48
2017-06-01T15:05:56.527Z,3.04
2017-06-01T15:08:24.987Z,3.18
2017-06-01T15:10:53.493Z,3.24
2017-06-01T15:13:22.710Z,2.48
2017-06-01T15:15:51.936Z,3.10
2017-06-01T15:18:21.178Z,3.20
2017-06-01T15:20:50.422Z,3.20
2017-06-01T15:23:19.645Z,2.78
2017-06-01T15:25:48.859Z,3.62
2017-06-01T15:28:18.003Z,3.28
2017-06-01T15:30:47.240Z,3.62
2017-06-01T15:33:16.439Z,3.62
2017-06-01T15:35:45.768Z,3.00
2017-06-01T15:38:14.963Z,2.90
2017-06-01T15:40:44.212Z,3.06
2017-06-01T15:43:13.416Z,3.16
2017-06-01T15:45:42.860Z,3.00
2017-06-01T15:48:12.060Z,3.08
2017-06-01T15:50:41.287Z,3.18
2017-06-01T15:53:10.503Z,2.90
2017-06-01T15:55:39.716Z,2.68
2017-06-01T15:58:08.919Z,2.82
2017-06-01T16:00:38.142Z,3.36
2017-06-01T16:03:07.192Z,2.40
2017-06-01T16:05:36.383Z,3.30
2017-06-01T16:08:05.624Z,3.32
2017-06-01T16:10:34.836Z,2.72
2017-06-01T16:13:04.087Z,3.48
2017-06-01T16:15:33.325Z,2.98
2017-06-01T16:18:02.626Z,2.90
2017-06-01T16:20:31.084Z,2.54
2017-06-01T16:23:00.326Z,3.04
2017-06-01T16:25:29.547Z,2.60
2017-06-01T16:27:58.011Z,2.58
2017-06-01T16:30:26.473Z,2.60
2017-06-01T16:32:55.683Z,3.50
2017-06-01T16:35:24.882Z,3.46
2017-06-01T16:37:53.388Z,2.90
2017-06-01T16:40:21.844Z,3.02
2017-06-01T16:42:51.053Z,3.10
2017-06-01T16:45:19.515Z,3.10
2017-06-01T16:47:47.976Z,2.54
2017-06-01T16:50:17.198Z,3.48
2017-06-01T16:52:46.479Z,2.94
2017-06-01T16:55:15.676Z,3.10
2017-06-01T16:57:44.944Z,2.62
2017-06-01T17:00:14.156Z,3.10
2017-06-01T17:02:43.360Z,2.72
2017-06-01T17:05:12.589Z,2.80
2017-06-01T17:07:41.803Z,2.86
2017-06-01T17:10:10.259Z,3.50
2017-06-01T17:12:39.488Z,3.24
2017-06-01T17:15:08.722Z,2.62
2017-06-01T17:17:37.168Z,3.12
2017-06-01T17:20:05.603Z,3.26
2017-06-01T17:22:34.815Z,2.80
2017-06-01T17:25:04.031Z,2.86
2017-06-01T17:27:33.266Z,2.96
2017-06-01T17:30:01.782Z,3.10
2017-06-01T17:32:31.105Z,3.20
2017-06-01T17:35:00.395Z,3.14
2017-06-01T17:37:29.612Z,3.42
2017-06-01T17:39:58.803Z,2.46
2017-06-01T17:42:27.995Z,2.94
2017-06-01T17:44:57.252Z,2.80
2017-06-01T17:47:26.463Z,2.94
2017-06-01T17:49:55.679Z,2.92
2017-06-01T17:52:24.907Z,2.88
2017-06-01T17:54:54.115Z,3.38
2017-06-01T17:57:23.334Z,3.22
2017-06-01T17:59:52.645Z,3.22
2017-06-01T18:02:21.868Z,3.10
2017-06-01T18:04:51.116Z,3.08
2017-06-01T18:07:20.346Z,2.78
2017-06-01T18:09:49.558Z,2.98
2017-06-01T18:12:18.780Z,3.18
2017-06-01T18:14:47.981Z,3.14
2017-06-01T18:17:17.188Z,2.60
2017-06-01T18:19:46.407Z,3.16
2017-06-01T18:22:15.631Z,3.14
2017-06-01T18:24:44.108Z,3.06
2017-06-01T18:27:13.331Z,3.36
2017-06-01T18:29:42.543Z,2.98
2017-06-01T18:32:10.979Z,2.74
2017-06-01T18:34:40.196Z,2.70
2017-06-01T18:37:09.396Z,3.20
2017-06-01T18:39:38.588Z,3.38
2017-06-01T18:42:07.823Z,2.84
2017-06-01T18:44:37.023Z,2.96
2017-06-01T18:47:06.239Z,2.72
2017-06-01T18:49:35.478Z,3.00
2017-06-01T18:52:04.699Z,3.18
2017-06-01T18:54:33.943Z,3.24
2017-06-01T18:57:03.176Z,3.58
2017-06-01T18:59:32.416Z,2.96
2017-06-01T19:02:01.629Z,2.94
2017-06-01T19:04:30.828Z,3.00
2017-06-01T19:07:00.044Z,3.10
2017-06-01T19:09:29.269Z,3.30
2017-06-01T19:11:58.491Z,3.14
2017-06-01T19:14:27.697Z,3.20
2017-06-01T19:16:56.918Z,3.28
2017-06-01T19:19:26.126Z,3.64
2017-06-01T19:21:55.319Z,3.34
2017-06-01T19:24:24.563Z,3.06
2017-06-01T19:26:53.791Z,3.58
2017-06-01T19:29:23.080Z,3.64
2017-06-01T19:31:52.292Z,2.88
2017-06-01T19:34:21.501Z,3.28
2017-06-01T19:36:50.728Z,3.38
2017-06-01T19:39:19.967Z,3.26
2017-06-01T19:41:49.193Z,3.54
2017-06-01T19:44:18.477Z,3.46
2017-06-01T19:46:47.674Z,3.98
2017-06-01T19:49:16.977Z,3.74
2017-06-01T19:51:46.199Z,3.36
2017-06-01T19:54:15.429Z,3.74
2017-06-01T19:56:44.641Z,3.58
2017-06-01T19:59:13.863Z,3.20
2017-06-01T20:01:43.061Z,3.58
2017-06-01T20:04:12.296Z,4.22
2017-06-01T20:06:41.512Z,4.06
2017-06-01T20:09:10.702Z,3.98
2017-06-01T20:11:39.911Z,3.42
2017-06-01T20:14:09.134Z,3.30
2017-06-01T20:16:38.348Z,3.60
2017-06-01T20:19:07.578Z,3.42
2017-06-01T20:21:36.885Z,3.50
2017-06-01T20:24:06.111Z,3.46
2017-06-01T20:26:35.311Z,4.02
2017-06-01T20:29:04.609Z,3.38
2017-06-01T20:31:33.972Z,3.70
2017-06-01T20:34:03.269Z,4.38
2017-06-01T20:36:32.500Z,3.84
2017-06-01T20:39:01.704Z,3.88
2017-06-01T20:41:31.075Z,3.86
2017-06-01T20:44:00.291Z,3.90
2017-06-01T20:46:29.507Z,3.96
2017-06-01T20:48:58.753Z,4.06
2017-06-01T20:51:27.961Z,4.50
2017-06-01T20:53:57.181Z,4.50
2017-06-01T20:56:26.398Z,4.40
2017-06-01T20:58:55.615Z,4.88
2017-06-01T21:01:24.889Z,5.10
2017-06-01T21:03:54.087Z,3.92
2017-06-01T21:06:23.994Z,4.54
2017-06-01T21:08:53.415Z,4.00
2017-06-01T21:11:22.616Z,4.52
2017-06-01T21:13:51.911Z,5.32
2017-06-01T21:16:21.214Z,4.34
2017-06-01T21:18:50.471Z,4.46
2017-06-01T21:21:19.981Z,4.00
2017-06-01T21:23:49.278Z,3.88
2017-06-01T21:26:18.559Z,4.10
2017-06-01T21:28:47.751Z,4.52
2017-06-01T21:31:16.987Z,4.88
2017-06-01T21:33:46.891Z,4.14
2017-06-01T21:36:16.098Z,4.28
2017-06-01T21:38:45.323Z,4.08
2017-06-01T21:41:14.549Z,4.58
2017-06-01T21:43:43.759Z,5.14
2017-06-01T21:46:13.017Z,4.38
2017-06-01T21:48:42.226Z,4.30
2017-06-01T21:51:11.451Z,4.34
2017-06-01T21:53:40.650Z,5.14
2017-06-01T21:56:09.860Z,4.70
2017-06-01T21:58:39.080Z,4.94
2017-06-01T22:01:08.301Z,4.10
2017-06-01T22:03:37.631Z,4.20
2017-06-01T22:06:06.850Z,4.52
2017-06-01T22:08:36.075Z,3.98
2017-06-01T22:11:05.283Z,5.02
2017-06-01T22:13:34.511Z,4.60
2017-06-01T22:16:03.715Z,4.64
2017-06-01T22:18:32.915Z,5.02
2017-06-01T22:21:02.143Z,4.68
2017-06-01T22:23:31.409Z,5.24
2017-06-01T22:26:00.680Z,4.14
2017-06-01T22:28:29.895Z,3.86
2017-06-01T22:30:59.103Z,4.34
2017-06-01T22:33:28.304Z,4.36
2017-06-01T22:35:57.511Z,4.56
2017-06-01T22:38:26.807Z,3.98
2017-06-01T22:40:56.031Z,4.54
2017-06-01T22:43:25.237Z,4.02
2017-06-01T22:45:54.442Z,4.72
2017-06-01T22:48:23.657Z,5.02
2017-06-01T22:50:52.852Z,4.90
2017-06-01T22:53:22.069Z,4.80
2017-06-01T22:55:51.298Z,5.28
2017-06-01T22:58:20.600Z,4.68
2017-06-01T23:00:49.816Z,4.24
2017-06-01T23:03:19.061Z,4.24
2017-06-01T23:05:48.260Z,4.52
2017-06-01T23:08:17.488Z,4.28
2017-06-01T23:10:46.684Z,4.86
2017-06-01T23:13:15.900Z,5.00
2017-06-01T23:15:45.148Z,5.30
2017-06-01T23:18:14.364Z,4.64
2017-06-01T23:20:43.559Z,5.20
2017-06-01T23:23:12.767Z,4.94
2017-06-01T23:25:41.987Z,4.78
2017-06-01T23:28:11.196Z,4.20
2017-06-01T23:30:40.397Z,4.74
2017-06-01T23:33:09.604Z,4.36
2017-06-01T23:35:38.814Z,4.62
2017-06-01T23:38:08.025Z,4.26
2017-06-01T23:40:37.251Z,4.78
2017-06-01T23:43:06.463Z,4.46
2017-06-01T23:45:35.667Z,4.22
2017-06-01T23:48:04.878Z,4.58
2017-06-01T23:50:34.103Z,5.06
2017-06-01T23:53:03.298Z,4.82
2017-06-01T23:55:32.651Z,4.38
2017-06-01T23:58:02.541Z,4.78
